sensor_id;sensor_type;location;lat;lon;timestamp;P1;durP1;ratioP1;P2;durP2;ratioP2
27163;SDS011;14685;50.618;7.024;2023-07-22T00:01:34;10.68;;;5.88;;
27163;SDS011;14685;50.618;7.024;2023-07-22T00:04:03;8.35;;;5.55;;
27163;SDS011;14685;50.618;7.024;2023-07-22T00:06:30;12.10;;;6.03;;
27163;SDS011;14685;50.618;7.024;2023-07-22T00:08:57;9.82;;;6.63;;
27163;SDS011;14685;50.618;7.024;2023-07-22T00:11:24;8.27;;;5.50;;
27163;SDS011;14685;50.618;7.024;2023-07-22T00:13:51;10.00;;;6.38;;
27163;SDS011;14685;50.618;7.024;2023-07-22T00:16:18;9.55;;;6.35;;
27163;SDS011;14685;50.618;7.024;2023-07-22T00:18:45;11.48;;;5.78;;
27163;SDS011;14685;50.618;7.024;2023-07-22T00:21:12;7.90;;;6.10;;
27163;SDS011;14685;50.618;7.024;2023-07-22T00:23:39;7.82;;;6.10;;
27163;SDS011;14685;50.618;7.024;2023-07-22T00:26:06;8.90;;;5.45;;
27163;SDS011;14685;50.618;7.024;2023-07-22T00:28:33;10.60;;;6.68;;
27163;SDS011;14685;50.618;7.024;2023-07-22T00:31:01;9.18;;;6.18;;
27163;SDS011;14685;50.618;7.024;2023-07-22T00:33:29;7.00;;;5.65;;
27163;SDS011;14685;50.618;7.024;2023-07-22T00:35:56;8.30;;;5.57;;
27163;SDS011;14685;50.618;7.024;2023-07-22T00:38:23;9.30;;;6.13;;
27163;SDS011;14685;50.618;7.024;2023-07-22T00:40:50;8.77;;;6.18;;
27163;SDS011;14685;50.618;7.024;2023-07-22T00:43:17;10.48;;;6.88;;
27163;SDS011;14685;50.618;7.024;2023-07-22T00:45:44;10.82;;;6.60;;
27163;SDS011;14685;50.618;7.024;2023-07-22T00:48:11;8.82;;;6.25;;
27163;SDS011;14685;50.618;7.024;2023-07-22T00:50:40;13.60;;;6.00;;
27163;SDS011;14685;50.618;7.024;2023-07-22T00:53:07;9.55;;;5.68;;
27163;SDS011;14685;50.618;7.024;2023-07-22T00:55:34;9.73;;;6.25;;
27163;SDS011;14685;50.618;7.024;2023-07-22T00:58:03;9.43;;;5.95;;
27163;SDS011;14685;50.618;7.024;2023-07-22T01:00:30;13.00;;;5.90;;
27163;SDS011;14685;50.618;7.024;2023-07-22T01:02:58;9.43;;;5.95;;
27163;SDS011;14685;50.618;7.024;2023-07-22T01:05:26;7.95;;;5.97;;
27163;SDS011;14685;50.618;7.024;2023-07-22T01:07:54;14.20;;;6.40;;
27163;SDS011;14685;50.618;7.024;2023-07-22T01:10:21;10.10;;;6.35;;
27163;SDS011;14685;50.618;7.024;2023-07-22T01:12:48;9.88;;;6.65;;
27163;SDS011;14685;50.618;7.024;2023-07-22T01:15:15;10.75;;;6.57;;
27163;SDS011;14685;50.618;7.024;2023-07-22T01:17:42;7.05;;;5.38;;
27163;SDS011;14685;50.618;7.024;2023-07-22T01:20:10;12.07;;;6.40;;
27163;SDS011;14685;50.618;7.024;2023-07-22T01:22:38;10.50;;;6.13;;
27163;SDS011;14685;50.618;7.024;2023-07-22T01:25:08;13.00;;;5.55;;
27163;SDS011;14685;50.618;7.024;2023-07-22T01:27:35;7.00;;;5.65;;
27163;SDS011;14685;50.618;7.024;2023-07-22T01:30:02;7.32;;;6.03;;
27163;SDS011;14685;50.618;7.024;2023-07-22T01:32:29;7.68;;;5.97;;
27163;SDS011;14685;50.618;7.024;2023-07-22T01:34:56;10.38;;;6.20;;
27163;SDS011;14685;50.618;7.024;2023-07-22T01:37:23;7.70;;;5.97;;
27163;SDS011;14685;50.618;7.024;2023-07-22T01:39:51;11.95;;;5.72;;
27163;SDS011;14685;50.618;7.024;2023-07-22T01:42:19;8.73;;;5.78;;
27163;SDS011;14685;50.618;7.024;2023-07-22T01:44:46;8.60;;;6.07;;
27163;SDS011;14685;50.618;7.024;2023-07-22T01:47:13;12.20;;;6.60;;
27163;SDS011;14685;50.618;7.024;2023-07-22T01:49:40;7.05;;;5.57;;
27163;SDS011;14685;50.618;7.024;2023-07-22T01:52:07;11.50;;;6.15;;
27163;SDS011;14685;50.618;7.024;2023-07-22T01:54:34;10.55;;;6.25;;
27163;SDS011;14685;50.618;7.024;2023-07-22T01:57:01;8.20;;;6.38;;
27163;SDS011;14685;50.618;7.024;2023-07-22T01:59:28;9.13;;;6.15;;
27163;SDS011;14685;50.618;7.024;2023-07-22T02:01:55;7.60;;;6.22;;
27163;SDS011;14685;50.618;7.024;2023-07-22T02:04:22;8.32;;;5.68;;
27163;SDS011;14685;50.618;7.024;2023-07-22T02:06:49;8.43;;;6.43;;
27163;SDS011;14685;50.618;7.024;2023-07-22T02:09:16;8.73;;;6.35;;
27163;SDS011;14685;50.618;7.024;2023-07-22T02:11:43;9.05;;;6.40;;
27163;SDS011;14685;50.618;7.024;2023-07-22T02:14:10;9.55;;;6.07;;
27163;SDS011;14685;50.618;7.024;2023-07-22T02:16:37;11.18;;;6.65;;
27163;SDS011;14685;50.618;7.024;2023-07-22T02:19:04;13.82;;;6.45;;
27163;SDS011;14685;50.618;7.024;2023-07-22T02:21:31;11.70;;;6.50;;
27163;SDS011;14685;50.618;7.024;2023-07-22T02:23:59;8.98;;;5.68;;
27163;SDS011;14685;50.618;7.024;2023-07-22T02:26:26;9.02;;;5.32;;
27163;SDS011;14685;50.618;7.024;2023-07-22T02:28:53;9.82;;;6.10;;
27163;SDS011;14685;50.618;7.024;2023-07-22T02:31:21;10.48;;;6.63;;
27163;SDS011;14685;50.618;7.024;2023-07-22T02:33:49;10.85;;;6.55;;
27163;SDS011;14685;50.618;7.024;2023-07-22T02:36:16;9.60;;;6.38;;
27163;SDS011;14685;50.618;7.024;2023-07-22T02:38:43;8.77;;;6.28;;
27163;SDS011;14685;50.618;7.024;2023-07-22T02:41:10;10.27;;;6.47;;
27163;SDS011;14685;50.618;7.024;2023-07-22T02:43:37;8.63;;;5.93;;
27163;SDS011;14685;50.618;7.024;2023-07-22T02:46:04;11.65;;;6.22;;
27163;SDS011;14685;50.618;7.024;2023-07-22T02:48:34;15.35;;;6.88;;
27163;SDS011;14685;50.618;7.024;2023-07-22T02:51:02;12.95;;;6.93;;
27163;SDS011;14685;50.618;7.024;2023-07-22T02:53:31;9.25;;;6.47;;
27163;SDS011;14685;50.618;7.024;2023-07-22T02:55:59;10.88;;;5.93;;
27163;SDS011;14685;50.618;7.024;2023-07-22T02:58:26;11.00;;;6.22;;
27163;SDS011;14685;50.618;7.024;2023-07-22T03:00:53;8.85;;;6.80;;
27163;SDS011;14685;50.618;7.024;2023-07-22T03:03:20;12.35;;;7.43;;
27163;SDS011;14685;50.618;7.024;2023-07-22T03:05:47;11.68;;;6.82;;
27163;SDS011;14685;50.618;7.024;2023-07-22T03:08:14;12.90;;;6.03;;
27163;SDS011;14685;50.618;7.024;2023-07-22T03:10:43;8.88;;;6.25;;
27163;SDS011;14685;50.618;7.024;2023-07-22T03:13:17;9.20;;;6.65;;
27163;SDS011;14685;50.618;7.024;2023-07-22T03:15:44;11.35;;;7.22;;
27163;SDS011;14685;50.618;7.024;2023-07-22T03:18:11;9.20;;;6.90;;
27163;SDS011;14685;50.618;7.024;2023-07-22T03:20:38;11.13;;;6.35;;
27163;SDS011;14685;50.618;7.024;2023-07-22T03:23:06;8.77;;;6.72;;
27163;SDS011;14685;50.618;7.024;2023-07-22T03:25:34;9.07;;;6.32;;
27163;SDS011;14685;50.618;7.024;2023-07-22T03:28:02;10.95;;;5.97;;
27163;SDS011;14685;50.618;7.024;2023-07-22T03:30:30;13.50;;;6.70;;
27163;SDS011;14685;50.618;7.024;2023-07-22T03:32:57;10.68;;;6.03;;
27163;SDS011;14685;50.618;7.024;2023-07-22T03:35:25;10.35;;;6.43;;
27163;SDS011;14685;50.618;7.024;2023-07-22T03:37:52;11.52;;;6.63;;
27163;SDS011;14685;50.618;7.024;2023-07-22T03:40:19;9.48;;;6.40;;
27163;SDS011;14685;50.618;7.024;2023-07-22T03:42:53;9.63;;;6.82;;
27163;SDS011;14685;50.618;7.024;2023-07-22T03:45:22;13.93;;;7.32;;
27163;SDS011;14685;50.618;7.024;2023-07-22T03:48:07;13.77;;;6.63;;
27163;SDS011;14685;50.618;7.024;2023-07-22T03:50:35;13.63;;;6.50;;
27163;SDS011;14685;50.618;7.024;2023-07-22T03:53:02;11.27;;;6.68;;
27163;SDS011;14685;50.618;7.024;2023-07-22T03:55:29;10.60;;;7.07;;
27163;SDS011;14685;50.618;7.024;2023-07-22T03:57:56;8.30;;;6.20;;
27163;SDS011;14685;50.618;7.024;2023-07-22T04:00:23;9.98;;;6.97;;
27163;SDS011;14685;50.618;7.024;2023-07-22T04:02:50;12.07;;;7.70;;
27163;SDS011;14685;50.618;7.024;2023-07-22T04:05:17;11.25;;;7.07;;
27163;SDS011;14685;50.618;7.024;2023-07-22T04:07:44;13.73;;;7.47;;
27163;SDS011;14685;50.618;7.024;2023-07-22T04:10:11;9.27;;;6.68;;
27163;SDS011;14685;50.618;7.024;2023-07-22T04:12:38;11.65;;;6.95;;
27163;SDS011;14685;50.618;7.024;2023-07-22T04:15:08;11.63;;;6.70;;
27163;SDS011;14685;50.618;7.024;2023-07-22T04:17:35;13.25;;;6.57;;
27163;SDS011;14685;50.618;7.024;2023-07-22T04:20:02;11.27;;;6.63;;
27163;SDS011;14685;50.618;7.024;2023-07-22T04:22:30;11.73;;;6.50;;
27163;SDS011;14685;50.618;7.024;2023-07-22T04:24:57;11.10;;;7.35;;
27163;SDS011;14685;50.618;7.024;2023-07-22T04:27:25;11.02;;;7.00;;
27163;SDS011;14685;50.618;7.024;2023-07-22T04:29:53;14.85;;;7.20;;
27163;SDS011;14685;50.618;7.024;2023-07-22T04:32:20;13.07;;;7.07;;
27163;SDS011;14685;50.618;7.024;2023-07-22T04:34:49;13.50;;;7.90;;
27163;SDS011;14685;50.618;7.024;2023-07-22T04:37:16;16.13;;;6.65;;
27163;SDS011;14685;50.618;7.024;2023-07-22T04:39:47;10.55;;;7.18;;
27163;SDS011;14685;50.618;7.024;2023-07-22T04:42:15;9.57;;;6.35;;
27163;SDS011;14685;50.618;7.024;2023-07-22T04:44:43;10.88;;;6.38;;
27163;SDS011;14685;50.618;7.024;2023-07-22T04:47:10;13.32;;;6.88;;
27163;SDS011;14685;50.618;7.024;2023-07-22T04:49:37;12.95;;;6.80;;
27163;SDS011;14685;50.618;7.024;2023-07-22T04:52:05;8.68;;;6.72;;
27163;SDS011;14685;50.618;7.024;2023-07-22T04:54:32;12.75;;;7.03;;
27163;SDS011;14685;50.618;7.024;2023-07-22T04:56:59;12.23;;;6.47;;
27163;SDS011;14685;50.618;7.024;2023-07-22T04:59:26;12.75;;;7.13;;
27163;SDS011;14685;50.618;7.024;2023-07-22T05:01:53;17.38;;;7.22;;
27163;SDS011;14685;50.618;7.024;2023-07-22T05:04:21;13.90;;;7.40;;
27163;SDS011;14685;50.618;7.024;2023-07-22T05:06:48;11.35;;;7.85;;
27163;SDS011;14685;50.618;7.024;2023-07-22T05:09:15;11.85;;;7.15;;
27163;SDS011;14685;50.618;7.024;2023-07-22T05:11:42;9.68;;;6.50;;
27163;SDS011;14685;50.618;7.024;2023-07-22T05:14:09;15.63;;;7.22;;
27163;SDS011;14685;50.618;7.024;2023-07-22T05:16:36;11.60;;;7.30;;
27163;SDS011;14685;50.618;7.024;2023-07-22T05:19:03;14.00;;;7.70;;
27163;SDS011;14685;50.618;7.024;2023-07-22T05:21:31;12.60;;;6.90;;
27163;SDS011;14685;50.618;7.024;2023-07-22T05:23:58;13.18;;;6.90;;
27163;SDS011;14685;50.618;7.024;2023-07-22T05:26:25;12.93;;;7.05;;
27163;SDS011;14685;50.618;7.024;2023-07-22T05:28:53;11.05;;;7.43;;
27163;SDS011;14685;50.618;7.024;2023-07-22T05:31:20;9.38;;;7.13;;
27163;SDS011;14685;50.618;7.024;2023-07-22T05:33:47;11.30;;;7.05;;
27163;SDS011;14685;50.618;7.024;2023-07-22T05:36:14;11.32;;;7.13;;
27163;SDS011;14685;50.618;7.024;2023-07-22T05:38:41;11.68;;;6.93;;
27163;SDS011;14685;50.618;7.024;2023-07-22T05:41:08;13.02;;;7.25;;
27163;SDS011;14685;50.618;7.024;2023-07-22T05:43:35;12.32;;;6.68;;
27163;SDS011;14685;50.618;7.024;2023-07-22T05:46:02;9.55;;;6.63;;
27163;SDS011;14685;50.618;7.024;2023-07-22T05:48:29;8.40;;;6.35;;
27163;SDS011;14685;50.618;7.024;2023-07-22T05:50:56;11.90;;;6.75;;
27163;SDS011;14685;50.618;7.024;2023-07-22T05:53:23;9.13;;;6.32;;
27163;SDS011;14685;50.618;7.024;2023-07-22T05:55:50;9.18;;;6.07;;
27163;SDS011;14685;50.618;7.024;2023-07-22T05:58:17;9.30;;;6.18;;
27163;SDS011;14685;50.618;7.024;2023-07-22T06:00:44;7.63;;;6.20;;
27163;SDS011;14685;50.618;7.024;2023-07-22T06:03:13;8.68;;;6.57;;
27163;SDS011;14685;50.618;7.024;2023-07-22T06:05:40;10.90;;;6.97;;
27163;SDS011;14685;50.618;7.024;2023-07-22T06:08:07;8.88;;;6.70;;
27163;SDS011;14685;50.618;7.024;2023-07-22T06:10:34;9.38;;;6.18;;
27163;SDS011;14685;50.618;7.024;2023-07-22T06:13:04;8.45;;;6.28;;
27163;SDS011;14685;50.618;7.024;2023-07-22T06:15:31;9.27;;;5.68;;
27163;SDS011;14685;50.618;7.024;2023-07-22T06:18:02;9.45;;;6.28;;
27163;SDS011;14685;50.618;7.024;2023-07-22T06:20:29;7.97;;;5.65;;
27163;SDS011;14685;50.618;7.024;2023-07-22T06:22:56;9.18;;;5.75;;
27163;SDS011;14685;50.618;7.024;2023-07-22T06:25:23;9.98;;;6.13;;
27163;SDS011;14685;50.618;7.024;2023-07-22T06:27:50;7.75;;;5.20;;
27163;SDS011;14685;50.618;7.024;2023-07-22T06:30:20;8.93;;;6.32;;
27163;SDS011;14685;50.618;7.024;2023-07-22T06:32:47;8.50;;;6.00;;
27163;SDS011;14685;50.618;7.024;2023-07-22T06:35:14;7.05;;;5.22;;
27163;SDS011;14685;50.618;7.024;2023-07-22T06:37:41;7.60;;;5.47;;
27163;SDS011;14685;50.618;7.024;2023-07-22T06:40:08;6.88;;;5.25;;
27163;SDS011;14685;50.618;7.024;2023-07-22T06:42:36;8.02;;;5.72;;
27163;SDS011;14685;50.618;7.024;2023-07-22T06:45:03;10.57;;;6.18;;
27163;SDS011;14685;50.618;7.024;2023-07-22T06:47:31;8.85;;;5.53;;
27163;SDS011;14685;50.618;7.024;2023-07-22T06:49:58;7.65;;;5.78;;
27163;SDS011;14685;50.618;7.024;2023-07-22T06:52:25;7.80;;;4.50;;
27163;SDS011;14685;50.618;7.024;2023-07-22T06:54:52;6.90;;;5.22;;
27163;SDS011;14685;50.618;7.024;2023-07-22T06:57:19;8.60;;;5.82;;
27163;SDS011;14685;50.618;7.024;2023-07-22T06:59:46;7.47;;;5.60;;
27163;SDS011;14685;50.618;7.024;2023-07-22T07:02:13;6.72;;;5.53;;
27163;SDS011;14685;50.618;7.024;2023-07-22T07:04:40;7.72;;;5.50;;
27163;SDS011;14685;50.618;7.024;2023-07-22T07:07:07;7.20;;;5.45;;
27163;SDS011;14685;50.618;7.024;2023-07-22T07:09:34;9.30;;;5.90;;
27163;SDS011;14685;50.618;7.024;2023-07-22T07:12:02;7.03;;;5.18;;
27163;SDS011;14685;50.618;7.024;2023-07-22T07:14:29;8.32;;;5.15;;
27163;SDS011;14685;50.618;7.024;2023-07-22T07:16:56;8.20;;;5.10;;
27163;SDS011;14685;50.618;7.024;2023-07-22T07:19:23;8.05;;;5.60;;
27163;SDS011;14685;50.618;7.024;2023-07-22T07:21:50;8.32;;;5.38;;
27163;SDS011;14685;50.618;7.024;2023-07-22T07:24:17;8.57;;;4.88;;
27163;SDS011;14685;50.618;7.024;2023-07-22T07:26:45;9.23;;;5.93;;
27163;SDS011;14685;50.618;7.024;2023-07-22T07:29:12;7.82;;;5.30;;
27163;SDS011;14685;50.618;7.024;2023-07-22T07:31:53;6.50;;;5.72;;
27163;SDS011;14685;50.618;7.024;2023-07-22T07:34:20;8.23;;;5.30;;
27163;SDS011;14685;50.618;7.024;2023-07-22T07:36:47;8.10;;;5.68;;
27163;SDS011;14685;50.618;7.024;2023-07-22T07:39:15;6.22;;;5.38;;
27163;SDS011;14685;50.618;7.024;2023-07-22T07:41:42;10.25;;;6.00;;
27163;SDS011;14685;50.618;7.024;2023-07-22T07:44:09;7.43;;;5.88;;
27163;SDS011;14685;50.618;7.024;2023-07-22T07:46:35;6.32;;;5.65;;
27163;SDS011;14685;50.618;7.024;2023-07-22T07:49:02;10.90;;;5.68;;
27163;SDS011;14685;50.618;7.024;2023-07-22T07:51:30;6.35;;;5.18;;
27163;SDS011;14685;50.618;7.024;2023-07-22T07:53:58;6.15;;;5.53;;
27163;SDS011;14685;50.618;7.024;2023-07-22T07:56:26;6.63;;;5.22;;
27163;SDS011;14685;50.618;7.024;2023-07-22T07:58:56;7.97;;;5.35;;
27163;SDS011;14685;50.618;7.024;2023-07-22T08:01:23;6.40;;;5.07;;
27163;SDS011;14685;50.618;7.024;2023-07-22T08:03:50;5.63;;;4.80;;
27163;SDS011;14685;50.618;7.024;2023-07-22T08:06:17;5.68;;;4.65;;
27163;SDS011;14685;50.618;7.024;2023-07-22T08:08:45;4.90;;;4.20;;
27163;SDS011;14685;50.618;7.024;2023-07-22T08:11:13;5.57;;;4.10;;
27163;SDS011;14685;50.618;7.024;2023-07-22T08:13:41;5.00;;;4.50;;
27163;SDS011;14685;50.618;7.024;2023-07-22T08:16:10;5.80;;;3.78;;
27163;SDS011;14685;50.618;7.024;2023-07-22T08:18:39;5.38;;;4.13;;
27163;SDS011;14685;50.618;7.024;2023-07-22T08:21:06;4.15;;;3.67;;
27163;SDS011;14685;50.618;7.024;2023-07-22T08:23:35;4.53;;;3.55;;
27163;SDS011;14685;50.618;7.024;2023-07-22T08:26:03;4.80;;;4.07;;
27163;SDS011;14685;50.618;7.024;2023-07-22T08:28:32;4.78;;;4.28;;
27163;SDS011;14685;50.618;7.024;2023-07-22T08:31:00;5.18;;;3.90;;
27163;SDS011;14685;50.618;7.024;2023-07-22T08:33:27;4.32;;;3.92;;
27163;SDS011;14685;50.618;7.024;2023-07-22T08:36:07;6.82;;;4.53;;
27163;SDS011;14685;50.618;7.024;2023-07-22T08:38:34;4.75;;;3.40;;
27163;SDS011;14685;50.618;7.024;2023-07-22T08:41:01;2.60;;;2.40;;
27163;SDS011;14685;50.618;7.024;2023-07-22T08:43:29;3.17;;;2.88;;
27163;SDS011;14685;50.618;7.024;2023-07-22T08:46:00;3.05;;;2.30;;
27163;SDS011;14685;50.618;7.024;2023-07-22T08:48:29;2.50;;;2.30;;
27163;SDS011;14685;50.618;7.024;2023-07-22T08:51:03;4.47;;;2.80;;
27163;SDS011;14685;50.618;7.024;2023-07-22T08:53:31;2.42;;;2.20;;
27163;SDS011;14685;50.618;7.024;2023-07-22T08:56:00;3.50;;;1.85;;
27163;SDS011;14685;50.618;7.024;2023-07-22T08:58:27;2.20;;;2.00;;
27163;SDS011;14685;50.618;7.024;2023-07-22T09:00:55;3.00;;;2.25;;
27163;SDS011;14685;50.618;7.024;2023-07-22T09:03:23;3.05;;;2.42;;
27163;SDS011;14685;50.618;7.024;2023-07-22T09:05:50;5.03;;;2.72;;
27163;SDS011;14685;50.618;7.024;2023-07-22T09:08:19;4.00;;;2.65;;
27163;SDS011;14685;50.618;7.024;2023-07-22T09:10:46;6.20;;;3.60;;
27163;SDS011;14685;50.618;7.024;2023-07-22T09:13:14;2.88;;;2.35;;
27163;SDS011;14685;50.618;7.024;2023-07-22T09:15:43;2.42;;;2.22;;
27163;SDS011;14685;50.618;7.024;2023-07-22T09:18:12;2.25;;;2.05;;
27163;SDS011;14685;50.618;7.024;2023-07-22T09:20:41;2.35;;;2.15;;
27163;SDS011;14685;50.618;7.024;2023-07-22T09:23:09;2.38;;;2.17;;
27163;SDS011;14685;50.618;7.024;2023-07-22T09:25:40;1.90;;;1.75;;
27163;SDS011;14685;50.618;7.024;2023-07-22T09:28:08;2.00;;;1.80;;
27163;SDS011;14685;50.618;7.024;2023-07-22T09:30:37;2.88;;;2.15;;
27163;SDS011;14685;50.618;7.024;2023-07-22T09:33:06;1.80;;;1.70;;
27163;SDS011;14685;50.618;7.024;2023-07-22T09:35:50;1.70;;;1.60;;
27163;SDS011;14685;50.618;7.024;2023-07-22T09:38:23;2.55;;;1.92;;
27163;SDS011;14685;50.618;7.024;2023-07-22T09:40:51;2.63;;;2.20;;
27163;SDS011;14685;50.618;7.024;2023-07-22T09:43:19;2.33;;;1.88;;
27163;SDS011;14685;50.618;7.024;2023-07-22T09:45:46;3.80;;;3.40;;
27163;SDS011;14685;50.618;7.024;2023-07-22T09:48:14;2.15;;;1.98;;
27163;SDS011;14685;50.618;7.024;2023-07-22T09:50:42;5.38;;;2.00;;
27163;SDS011;14685;50.618;7.024;2023-07-22T09:53:10;2.30;;;1.80;;
27163;SDS011;14685;50.618;7.024;2023-07-22T09:55:42;6.85;;;2.63;;
27163;SDS011;14685;50.618;7.024;2023-07-22T09:58:09;3.25;;;1.65;;
27163;SDS011;14685;50.618;7.024;2023-07-22T10:00:37;1.73;;;1.48;;
27163;SDS011;14685;50.618;7.024;2023-07-22T10:03:08;1.80;;;1.55;;
27163;SDS011;14685;50.618;7.024;2023-07-22T10:05:40;2.15;;;1.85;;
27163;SDS011;14685;50.618;7.024;2023-07-22T10:08:08;2.58;;;1.80;;
27163;SDS011;14685;50.618;7.024;2023-07-22T10:10:38;2.38;;;2.17;;
27163;SDS011;14685;50.618;7.024;2023-07-22T10:13:05;2.10;;;1.88;;
27163;SDS011;14685;50.618;7.024;2023-07-22T10:15:33;2.65;;;1.92;;
27163;SDS011;14685;50.618;7.024;2023-07-22T10:18:04;3.25;;;2.95;;
27163;SDS011;14685;50.618;7.024;2023-07-22T10:20:31;2.80;;;2.60;;
27163;SDS011;14685;50.618;7.024;2023-07-22T10:23:03;2.17;;;1.98;;
27163;SDS011;14685;50.618;7.024;2023-07-22T10:25:30;1.98;;;1.85;;
27163;SDS011;14685;50.618;7.024;2023-07-22T10:27:58;2.97;;;1.60;;
27163;SDS011;14685;50.618;7.024;2023-07-22T10:30:25;2.05;;;1.85;;
27163;SDS011;14685;50.618;7.024;2023-07-22T10:32:52;1.70;;;1.60;;
27163;SDS011;14685;50.618;7.024;2023-07-22T10:38:18;2.38;;;1.77;;
27163;SDS011;14685;50.618;7.024;2023-07-22T10:40:47;2.58;;;1.85;;
27163;SDS011;14685;50.618;7.024;2023-07-22T10:43:17;3.28;;;2.13;;
27163;SDS011;14685;50.618;7.024;2023-07-22T10:45:51;3.88;;;2.67;;
27163;SDS011;14685;50.618;7.024;2023-07-22T10:48:23;2.22;;;2.03;;
27163;SDS011;14685;50.618;7.024;2023-07-22T10:50:55;2.78;;;1.85;;
27163;SDS011;14685;50.618;7.024;2023-07-22T10:58:56;2.30;;;2.10;;
27163;SDS011;14685;50.618;7.024;2023-07-22T11:04:11;3.22;;;2.40;;
27163;SDS011;14685;50.618;7.024;2023-07-22T11:12:03;3.05;;;2.72;;
27163;SDS011;14685;50.618;7.024;2023-07-22T11:14:38;2.05;;;1.85;;
27163;SDS011;14685;50.618;7.024;2023-07-22T11:17:06;2.38;;;2.03;;
27163;SDS011;14685;50.618;7.024;2023-07-22T11:19:34;2.38;;;2.17;;
27163;SDS011;14685;50.618;7.024;2023-07-22T11:22:02;4.28;;;1.75;;
27163;SDS011;14685;50.618;7.024;2023-07-22T11:24:29;3.35;;;2.33;;
27163;SDS011;14685;50.618;7.024;2023-07-22T11:26:58;3.05;;;1.90;;
27163;SDS011;14685;50.618;7.024;2023-07-22T11:29:25;2.40;;;2.20;;
27163;SDS011;14685;50.618;7.024;2023-07-22T11:31:52;4.03;;;2.42;;
27163;SDS011;14685;50.618;7.024;2023-07-22T11:34:20;2.38;;;2.17;;
27163;SDS011;14685;50.618;7.024;2023-07-22T11:36:48;4.60;;;2.45;;
27163;SDS011;14685;50.618;7.024;2023-07-22T11:39:17;2.88;;;2.65;;
27163;SDS011;14685;50.618;7.024;2023-07-22T11:41:46;3.03;;;2.28;;
27163;SDS011;14685;50.618;7.024;2023-07-22T11:44:15;3.60;;;2.50;;
27163;SDS011;14685;50.618;7.024;2023-07-22T11:46:55;3.33;;;2.40;;
27163;SDS011;14685;50.618;7.024;2023-07-22T11:49:33;4.00;;;2.28;;
27163;SDS011;14685;50.618;7.024;2023-07-22T11:52:05;3.20;;;2.72;;
27163;SDS011;14685;50.618;7.024;2023-07-22T11:54:39;2.70;;;2.50;;
27163;SDS011;14685;50.618;7.024;2023-07-22T11:59:47;5.55;;;2.72;;
27163;SDS011;14685;50.618;7.024;2023-07-22T12:02:16;2.80;;;2.60;;
27163;SDS011;14685;50.618;7.024;2023-07-22T12:07:47;2.53;;;2.17;;
27163;SDS011;14685;50.618;7.024;2023-07-22T12:10:15;4.82;;;2.67;;
27163;SDS011;14685;50.618;7.024;2023-07-22T12:12:43;2.50;;;2.30;;
27163;SDS011;14685;50.618;7.024;2023-07-22T12:15:13;3.50;;;2.60;;
27163;SDS011;14685;50.618;7.024;2023-07-22T12:17:55;3.15;;;2.53;;
27163;SDS011;14685;50.618;7.024;2023-07-22T12:20:27;2.70;;;2.47;;
27163;SDS011;14685;50.618;7.024;2023-07-22T12:22:55;2.60;;;2.40;;
27163;SDS011;14685;50.618;7.024;2023-07-22T12:25:23;2.72;;;2.50;;
27163;SDS011;14685;50.618;7.024;2023-07-22T12:27:50;3.03;;;2.70;;
27163;SDS011;14685;50.618;7.024;2023-07-22T12:30:17;2.70;;;2.40;;
27163;SDS011;14685;50.618;7.024;2023-07-22T12:32:46;2.60;;;2.40;;
27163;SDS011;14685;50.618;7.024;2023-07-22T12:35:13;2.85;;;2.65;;
27163;SDS011;14685;50.618;7.024;2023-07-22T12:37:40;4.50;;;2.80;;
27163;SDS011;14685;50.618;7.024;2023-07-22T12:40:07;3.15;;;2.63;;
27163;SDS011;14685;50.618;7.024;2023-07-22T12:42:35;2.55;;;2.20;;
27163;SDS011;14685;50.618;7.024;2023-07-22T12:45:03;2.83;;;2.42;;
27163;SDS011;14685;50.618;7.024;2023-07-22T12:47:31;3.45;;;2.60;;
27163;SDS011;14685;50.618;7.024;2023-07-22T12:49:58;2.72;;;2.53;;
27163;SDS011;14685;50.618;7.024;2023-07-22T12:52:25;3.75;;;2.83;;
27163;SDS011;14685;50.618;7.024;2023-07-22T12:54:52;2.58;;;2.38;;
27163;SDS011;14685;50.618;7.024;2023-07-22T12:57:19;5.43;;;2.83;;
27163;SDS011;14685;50.618;7.024;2023-07-22T12:59:46;3.33;;;2.80;;
27163;SDS011;14685;50.618;7.024;2023-07-22T13:02:14;2.83;;;2.60;;
27163;SDS011;14685;50.618;7.024;2023-07-22T13:04:42;4.00;;;2.65;;
27163;SDS011;14685;50.618;7.024;2023-07-22T13:07:10;2.55;;;2.08;;
27163;SDS011;14685;50.618;7.024;2023-07-22T13:09:37;3.97;;;2.35;;
27163;SDS011;14685;50.618;7.024;2023-07-22T13:12:05;4.65;;;2.53;;
27163;SDS011;14685;50.618;7.024;2023-07-22T13:14:33;2.55;;;2.35;;
27163;SDS011;14685;50.618;7.024;2023-07-22T13:17:02;2.70;;;2.40;;
27163;SDS011;14685;50.618;7.024;2023-07-22T13:19:29;3.63;;;2.80;;
27163;SDS011;14685;50.618;7.024;2023-07-22T13:21:56;4.07;;;2.88;;
27163;SDS011;14685;50.618;7.024;2023-07-22T13:24:23;2.90;;;2.60;;
27163;SDS011;14685;50.618;7.024;2023-07-22T13:26:50;4.05;;;2.83;;
27163;SDS011;14685;50.618;7.024;2023-07-22T13:29:17;3.10;;;2.80;;
27163;SDS011;14685;50.618;7.024;2023-07-22T13:31:44;4.38;;;3.15;;
27163;SDS011;14685;50.618;7.024;2023-07-22T13:34:11;3.00;;;2.58;;
27163;SDS011;14685;50.618;7.024;2023-07-22T13:36:37;3.15;;;2.83;;
27163;SDS011;14685;50.618;7.024;2023-07-22T13:39:04;4.13;;;3.30;;
27163;SDS011;14685;50.618;7.024;2023-07-22T13:41:31;5.60;;;2.90;;
27163;SDS011;14685;50.618;7.024;2023-07-22T13:43:58;3.25;;;2.85;;
27163;SDS011;14685;50.618;7.024;2023-07-22T13:46:25;3.85;;;2.92;;
27163;SDS011;14685;50.618;7.024;2023-07-22T13:48:52;3.72;;;3.28;;
27163;SDS011;14685;50.618;7.024;2023-07-22T13:51:19;3.40;;;2.90;;
27163;SDS011;14685;50.618;7.024;2023-07-22T13:53:46;3.97;;;3.08;;
27163;SDS011;14685;50.618;7.024;2023-07-22T13:56:13;7.57;;;2.88;;
27163;SDS011;14685;50.618;7.024;2023-07-22T13:58:40;4.68;;;3.22;;
27163;SDS011;14685;50.618;7.024;2023-07-22T14:01:07;5.10;;;3.50;;
27163;SDS011;14685;50.618;7.024;2023-07-22T14:03:34;4.13;;;3.35;;
27163;SDS011;14685;50.618;7.024;2023-07-22T14:06:01;6.47;;;3.42;;
27163;SDS011;14685;50.618;7.024;2023-07-22T14:08:29;4.88;;;3.70;;
27163;SDS011;14685;50.618;7.024;2023-07-22T14:10:56;3.90;;;3.10;;
27163;SDS011;14685;50.618;7.024;2023-07-22T14:13:23;7.78;;;3.35;;
27163;SDS011;14685;50.618;7.024;2023-07-22T14:15:50;5.00;;;3.40;;
27163;SDS011;14685;50.618;7.024;2023-07-22T14:18:17;4.90;;;3.70;;
27163;SDS011;14685;50.618;7.024;2023-07-22T14:20:45;5.97;;;4.25;;
27163;SDS011;14685;50.618;7.024;2023-07-22T14:23:13;4.82;;;3.80;;
27163;SDS011;14685;50.618;7.024;2023-07-22T14:25:40;4.05;;;3.53;;
27163;SDS011;14685;50.618;7.024;2023-07-22T14:28:07;4.15;;;3.60;;
27163;SDS011;14685;50.618;7.024;2023-07-22T14:30:34;6.13;;;4.30;;
27163;SDS011;14685;50.618;7.024;2023-07-22T14:33:01;6.22;;;3.75;;
27163;SDS011;14685;50.618;7.024;2023-07-22T14:35:28;4.93;;;3.75;;
27163;SDS011;14685;50.618;7.024;2023-07-22T14:37:55;5.13;;;3.90;;
27163;SDS011;14685;50.618;7.024;2023-07-22T14:40:25;6.38;;;4.07;;
27163;SDS011;14685;50.618;7.024;2023-07-22T14:42:52;5.15;;;3.88;;
27163;SDS011;14685;50.618;7.024;2023-07-22T14:45:19;4.00;;;3.50;;
27163;SDS011;14685;50.618;7.024;2023-07-22T14:47:46;8.32;;;3.67;;
27163;SDS011;14685;50.618;7.024;2023-07-22T14:50:14;5.97;;;4.28;;
27163;SDS011;14685;50.618;7.024;2023-07-22T14:52:41;5.28;;;3.78;;
27163;SDS011;14685;50.618;7.024;2023-07-22T14:55:09;5.90;;;4.35;;
27163;SDS011;14685;50.618;7.024;2023-07-22T14:57:35;7.07;;;4.60;;
27163;SDS011;14685;50.618;7.024;2023-07-22T15:00:02;5.80;;;4.00;;
27163;SDS011;14685;50.618;7.024;2023-07-22T15:02:30;5.55;;;3.70;;
27163;SDS011;14685;50.618;7.024;2023-07-22T15:04:57;6.32;;;3.88;;
27163;SDS011;14685;50.618;7.024;2023-07-22T15:07:24;4.57;;;3.78;;
27163;SDS011;14685;50.618;7.024;2023-07-22T15:09:51;4.50;;;3.90;;
27163;SDS011;14685;50.618;7.024;2023-07-22T15:12:19;5.82;;;3.67;;